createdAt,value
2017-10-06T00:00:03.773Z,98.20
2017-10-06T00:02:31.290Z,98.20
2017-10-06T00:04:58.789Z,98.20
2017-10-06T00:07:26.289Z,98.40
2017-10-06T00:09:53.783Z,98.40
2017-10-06T00:12:22.053Z,98.50
2017-10-06T00:14:49.538Z,98.40
2017-10-06T00:17:17.810Z,98.30
2017-10-06T00:19:45.293Z,98.30
2017-10-06T00:22:13.564Z,98.20
2017-10-06T00:24:41.062Z,98.10
2017-10-06T00:27:08.565Z,98.00
2017-10-06T00:29:36.056Z,98.00
2017-10-06T00:32:03.561Z,98.00
2017-10-06T00:34:31.821Z,97.90
2017-10-06T00:36:59.325Z,97.90
2017-10-06T00:39:27.597Z,98.00
2017-10-06T00:41:55.080Z,97.90
2017-10-06T00:44:23.361Z,98.20
2017-10-06T00:46:51.618Z,98.40
2017-10-06T00:49:19.124Z,98.30
2017-10-06T00:51:47.385Z,98.50
2017-10-06T00:54:14.893Z,98.40
2017-10-06T00:56:43.144Z,98.90
2017-10-06T00:59:10.653Z,98.60
2017-10-06T01:01:38.897Z,98.60
2017-10-06T01:04:06.405Z,98.60
2017-10-06T01:06:34.660Z,98.50
2017-10-06T01:09:02.181Z,98.50
2017-10-06T01:11:29.669Z,98.40
2017-10-06T01:13:57.177Z,98.40
2017-10-06T01:16:24.672Z,98.50
2017-10-06T01:18:52.949Z,98.60
2017-10-06T01:21:20.436Z,98.60
2017-10-06T01:23:47.955Z,99.00
2017-10-06T01:26:15.458Z,98.70
2017-10-06T01:28:43.753Z,98.90
2017-10-06T01:31:12.042Z,98.80
2017-10-06T01:33:40.342Z,99.00
2017-10-06T01:36:08.596Z,99.50
2017-10-06T01:38:36.099Z,99.50
2017-10-06T01:41:03.580Z,99.60
2017-10-06T01:43:31.069Z,99.60
2017-10-06T01:45:59.341Z,99.50
2017-10-06T01:48:26.838Z,99.50
2017-10-06T01:50:54.345Z,99.50
2017-10-06T01:53:21.832Z,99.50
2017-10-06T01:55:50.105Z,99.50
2017-10-06T01:58:17.586Z,99.50
2017-10-06T02:00:46.856Z,99.30
2017-10-06T02:03:14.362Z,99.30
2017-10-06T02:05:42.642Z,99.30
2017-10-06T02:08:10.129Z,99.30
2017-10-06T02:10:38.398Z,99.30
2017-10-06T02:13:05.881Z,99.30
2017-10-06T02:15:34.166Z,99.10
2017-10-06T02:18:01.684Z,99.10
2017-10-06T02:20:29.210Z,99.40
2017-10-06T02:22:56.698Z,99.60
2017-10-06T02:25:24.978Z,99.50
2017-10-06T02:27:53.241Z,99.80
2017-10-06T02:30:20.758Z,99.70
2017-10-06T02:32:48.259Z,99.80
2017-10-06T02:35:15.773Z,99.80
2017-10-06T02:37:44.025Z,99.70
2017-10-06T02:40:11.552Z,99.70
2017-10-06T02:42:39.046Z,99.80
2017-10-06T02:45:06.574Z,99.80
2017-10-06T02:47:34.833Z,99.90
2017-10-06T02:50:02.318Z,99.80
2017-10-06T02:52:29.821Z,99.90
2017-10-06T02:54:57.310Z,99.90
2017-10-06T02:57:24.813Z,99.90
2017-10-06T02:59:52.300Z,99.90
2017-10-06T03:02:19.810Z,99.90
2017-10-06T03:04:47.293Z,99.90
2017-10-06T03:07:14.793Z,99.90
2017-10-06T03:09:42.281Z,99.90
2017-10-06T03:12:09.785Z,99.90
2017-10-06T03:14:37.273Z,99.90
2017-10-06T03:17:04.777Z,99.90
2017-10-06T03:19:32.258Z,99.90
2017-10-06T03:21:59.768Z,99.90
2017-10-06T03:24:27.258Z,99.90
2017-10-06T03:26:54.765Z,99.90
2017-10-06T03:29:22.252Z,99.90
2017-10-06T03:31:50.528Z,99.90
2017-10-06T03:34:18.008Z,99.90
2017-10-06T03:36:46.285Z,99.90
2017-10-06T03:39:13.770Z,99.90
2017-10-06T03:41:42.050Z,99.90
2017-10-06T03:44:09.541Z,99.90
2017-10-06T03:46:37.813Z,99.90
2017-10-06T03:49:06.080Z,99.90
2017-10-06T03:51:33.561Z,99.90
2017-10-06T03:54:01.064Z,99.90
2017-10-06T03:56:28.553Z,99.90
2017-10-06T03:58:56.058Z,99.90
2017-10-06T04:01:23.555Z,99.90
2017-10-06T04:03:51.828Z,99.90
2017-10-06T04:06:19.312Z,99.90
2017-10-06T04:08:47.585Z,99.90
2017-10-06T04:11:15.073Z,99.90
2017-10-06T04:13:43.341Z,99.90
2017-10-06T04:16:10.820Z,99.90
2017-10-06T04:18:38.325Z,99.90
2017-10-06T04:21:05.808Z,99.90
2017-10-06T04:23:33.313Z,99.90
2017-10-06T04:26:00.801Z,99.90
2017-10-06T04:28:28.302Z,99.90
2017-10-06T04:30:55.787Z,99.90
2017-10-06T04:33:23.296Z,99.90
2017-10-06T04:35:50.778Z,99.90
2017-10-06T04:38:18.282Z,99.90
2017-10-06T04:40:45.770Z,99.90
2017-10-06T04:43:13.275Z,99.90
2017-10-06T04:45:40.758Z,99.90
2017-10-06T04:48:08.237Z,99.90
2017-10-06T04:50:36.509Z,99.90
2017-10-06T04:53:03.989Z,99.90
2017-10-06T04:55:31.505Z,99.90
2017-10-06T04:57:58.993Z,99.90
2017-10-06T05:00:26.505Z,99.90
2017-10-06T05:02:54.752Z,99.90
2017-10-06T05:05:22.257Z,99.90
2017-10-06T05:07:49.741Z,99.90
2017-10-06T05:10:18.014Z,99.90
2017-10-06T05:12:45.500Z,99.90
2017-10-06T05:15:13.774Z,99.90
2017-10-06T05:17:41.257Z,99.90
2017-10-06T05:20:09.537Z,99.90
2017-10-06T05:22:37.017Z,99.90
2017-10-06T05:25:05.299Z,99.90
2017-10-06T05:27:33.559Z,99.90
2017-10-06T05:30:01.078Z,99.90
2017-10-06T05:32:28.568Z,99.90
2017-10-06T05:34:56.084Z,99.90
2017-10-06T05:37:23.568Z,99.90
2017-10-06T05:39:51.879Z,99.90
2017-10-06T05:42:19.371Z,99.90
2017-10-06T05:44:46.881Z,99.90
2017-10-06T05:47:14.365Z,99.90
2017-10-06T05:49:42.645Z,99.90
2017-10-06T05:52:10.128Z,99.90
2017-10-06T05:54:38.381Z,99.90
2017-10-06T05:57:05.889Z,99.90
2017-10-06T05:59:34.146Z,99.90
2017-10-06T06:02:01.649Z,99.90
2017-10-06T06:04:29.902Z,99.90
2017-10-06T06:06:57.401Z,99.90
2017-10-06T06:09:25.674Z,99.90
2017-10-06T06:11:56.400Z,99.90
2017-10-06T06:14:29.980Z,99.90
2017-10-06T06:16:58.284Z,99.90
2017-10-06T06:19:25.916Z,99.90
2017-10-06T06:21:54.192Z,99.90
2017-10-06T06:24:21.681Z,99.90
2017-10-06T06:26:49.949Z,99.90
2017-10-06T06:29:20.955Z,99.90
2017-10-06T06:31:48.468Z,99.90
2017-10-06T06:34:15.958Z,99.90
2017-10-06T06:36:44.233Z,99.90
2017-10-06T06:39:11.725Z,99.90
2017-10-06T06:41:39.246Z,99.90
2017-10-06T06:44:06.737Z,99.90
2017-10-06T06:46:34.253Z,99.90
2017-10-06T06:49:05.941Z,99.90
2017-10-06T06:51:33.456Z,99.90
2017-10-06T06:54:01.712Z,99.90
2017-10-06T06:56:29.230Z,99.90
2017-10-06T06:58:56.725Z,99.90
2017-10-06T07:01:24.270Z,99.90
2017-10-06T07:03:53.742Z,99.90
2017-10-06T07:06:22.214Z,99.90
2017-10-06T07:08:49.714Z,99.90
2017-10-06T07:11:17.213Z,99.90
2017-10-06T07:13:46.597Z,99.90
2017-10-06T07:16:14.093Z,99.90
2017-10-06T07:18:42.375Z,99.90
2017-10-06T07:21:09.860Z,99.90
2017-10-06T07:23:38.129Z,99.90
2017-10-06T07:26:05.609Z,99.90
2017-10-06T07:28:33.873Z,99.90
2017-10-06T07:31:01.356Z,99.90
2017-10-06T07:33:28.865Z,99.90
2017-10-06T07:35:56.345Z,99.90
2017-10-06T07:38:23.866Z,99.90
2017-10-06T07:40:51.353Z,99.90
2017-10-06T07:43:19.617Z,99.90
2017-10-06T07:45:47.127Z,99.90
2017-10-06T07:48:14.632Z,99.90
2017-10-06T07:50:42.114Z,99.90
2017-10-06T07:53:09.609Z,99.90
2017-10-06T07:55:37.871Z,99.90
2017-10-06T07:58:06.364Z,99.90
2017-10-06T08:00:33.917Z,99.90
2017-10-06T08:03:01.433Z,99.90
2017-10-06T08:05:29.686Z,99.90
2017-10-06T08:07:57.165Z,99.90
2017-10-06T08:10:24.681Z,99.90
2017-10-06T08:12:52.166Z,99.90
2017-10-06T08:15:19.681Z,99.90
2017-10-06T08:17:47.182Z,99.90
2017-10-06T08:20:15.461Z,99.90
2017-10-06T08:22:42.953Z,99.90
2017-10-06T08:25:11.541Z,99.90
2017-10-06T08:27:39.799Z,99.90
2017-10-06T08:30:07.313Z,99.90
2017-10-06T08:32:34.838Z,99.90
2017-10-06T08:35:02.401Z,99.90
2017-10-06T08:37:29.914Z,99.90
2017-10-06T08:39:57.448Z,99.90
2017-10-06T08:42:24.951Z,99.90
2017-10-06T08:44:53.233Z,99.90
2017-10-06T08:47:21.507Z,99.90
2017-10-06T08:49:49.018Z,99.90
2017-10-06T08:52:16.532Z,99.90
2017-10-06T08:54:44.056Z,99.90
2017-10-06T08:57:13.508Z,99.90
2017-10-06T08:59:41.017Z,99.90
2017-10-06T09:02:09.277Z,99.90
2017-10-06T09:04:36.789Z,99.90
2017-10-06T09:07:04.321Z,99.90
2017-10-06T09:09:31.844Z,99.90
2017-10-06T09:11:59.352Z,99.90
2017-10-06T09:14:26.870Z,99.90
2017-10-06T09:16:54.388Z,99.80
2017-10-06T09:19:21.878Z,99.80
2017-10-06T09:21:53.042Z,99.90
2017-10-06T09:24:20.552Z,99.80
2017-10-06T09:26:49.013Z,99.80
2017-10-06T09:29:16.500Z,98.90
2017-10-06T09:31:44.777Z,98.20
2017-10-06T09:34:12.282Z,98.20
2017-10-06T09:36:39.797Z,98.70
2017-10-06T09:39:07.306Z,98.40
2017-10-06T09:41:34.942Z,98.30
2017-10-06T09:44:02.482Z,98.10
2017-10-06T09:46:30.001Z,98.00
2017-10-06T09:48:57.489Z,97.90
2017-10-06T09:51:25.790Z,98.30
2017-10-06T09:53:53.366Z,98.30
2017-10-06T09:56:20.856Z,98.00
2017-10-06T09:58:48.386Z,97.90
2017-10-06T10:01:16.850Z,96.80
2017-10-06T10:03:44.350Z,96.80
2017-10-06T10:06:12.640Z,96.10
2017-10-06T10:08:40.902Z,96.00
2017-10-06T10:11:08.441Z,96.00
2017-10-06T10:13:35.931Z,96.40
2017-10-06T10:16:03.429Z,96.10
2017-10-06T10:18:31.705Z,96.00
2017-10-06T10:20:59.197Z,96.00
2017-10-06T10:23:27.522Z,96.40
2017-10-06T10:25:55.029Z,96.30
2017-10-06T10:28:26.333Z,96.10
2017-10-06T10:30:53.829Z,96.00
2017-10-06T10:33:21.437Z,96.50
2017-10-06T10:35:48.940Z,96.50
2017-10-06T10:38:16.466Z,96.40
2017-10-06T10:40:43.969Z,95.70
2017-10-06T10:43:12.246Z,94.70
2017-10-06T10:45:40.506Z,95.10
2017-10-06T10:48:08.013Z,94.80
2017-10-06T10:50:36.269Z,95.00
2017-10-06T10:53:03.811Z,95.00
2017-10-06T10:55:31.353Z,95.20
2017-10-06T10:57:58.869Z,95.70
2017-10-06T11:00:26.601Z,95.60
2017-10-06T11:02:54.174Z,95.30
2017-10-06T11:05:21.660Z,95.10
2017-10-06T11:07:49.161Z,95.00
2017-10-06T11:10:16.648Z,94.20
2017-10-06T11:12:44.172Z,94.40
2017-10-06T11:15:11.665Z,94.60
2017-10-06T11:17:39.169Z,94.40
2017-10-06T11:20:07.472Z,94.20
2017-10-06T11:22:35.011Z,94.20
2017-10-06T11:25:03.565Z,94.60
2017-10-06T11:27:31.065Z,94.70
2017-10-06T11:30:00.540Z,94.70
2017-10-06T11:32:28.029Z,94.50
2017-10-06T11:34:55.545Z,94.10
2017-10-06T11:37:23.049Z,93.90
2017-10-06T11:39:50.565Z,93.50
2017-10-06T11:42:18.093Z,93.30
2017-10-06T11:44:45.618Z,93.30
2017-10-06T11:47:13.125Z,93.70
2017-10-06T11:49:41.406Z,93.90
2017-10-06T11:52:09.939Z,93.80
2017-10-06T11:54:37.441Z,93.80
2017-10-06T11:57:04.945Z,93.80
2017-10-06T11:59:33.218Z,93.90
2017-10-06T12:02:00.704Z,93.90
2017-10-06T12:04:28.974Z,93.80
2017-10-06T12:06:56.484Z,93.80
2017-10-06T12:09:23.996Z,93.70
2017-10-06T12:11:56.052Z,93.60
2017-10-06T12:14:23.584Z,93.30
2017-10-06T12:16:51.077Z,93.70
2017-10-06T12:19:18.613Z,93.90
2017-10-06T12:21:53.012Z,93.80
2017-10-06T12:24:25.006Z,93.80
2017-10-06T12:26:53.405Z,95.20
2017-10-06T12:29:21.866Z,95.20
2017-10-06T12:31:49.423Z,96.10
2017-10-06T12:34:18.919Z,96.50
2017-10-06T12:36:46.439Z,96.70
2017-10-06T12:39:13.934Z,97.20
2017-10-06T12:41:42.212Z,97.30
2017-10-06T12:44:09.720Z,97.20
2017-10-06T12:46:37.244Z,97.40
2017-10-06T12:49:05.217Z,97.80
2017-10-06T12:51:32.743Z,97.90
2017-10-06T12:54:00.256Z,97.80
2017-10-06T12:56:27.850Z,97.70
2017-10-06T12:58:55.409Z,98.00
2017-10-06T13:01:22.957Z,98.10
2017-10-06T13:03:50.466Z,98.10
2017-10-06T13:06:17.970Z,98.10
2017-10-06T13:08:45.470Z,98.10
2017-10-06T13:11:12.981Z,98.00
2017-10-06T13:13:42.253Z,97.70
2017-10-06T13:16:10.635Z,97.70
2017-10-06T13:18:38.125Z,97.70
2017-10-06T13:21:05.637Z,97.80
2017-10-06T13:23:33.162Z,97.40
2017-10-06T13:26:00.733Z,97.40
2017-10-06T13:28:28.217Z,97.50
2017-10-06T13:30:55.705Z,97.70
2017-10-06T13:33:23.206Z,96.80
2017-10-06T13:35:50.709Z,97.00
2017-10-06T13:38:18.217Z,97.20
2017-10-06T13:40:46.482Z,97.60
2017-10-06T13:43:13.992Z,97.30
2017-10-06T13:45:42.286Z,97.10
2017-10-06T13:48:09.817Z,97.10
2017-10-06T13:50:37.539Z,97.20
2017-10-06T13:53:09.357Z,97.00
2017-10-06T13:55:36.844Z,97.20
2017-10-06T13:58:04.353Z,97.40
2017-10-06T14:00:31.845Z,96.80
2017-10-06T14:02:59.378Z,96.70
2017-10-06T14:05:27.649Z,96.10
2017-10-06T14:07:55.173Z,96.00
2017-10-06T14:10:22.673Z,96.30
2017-10-06T14:12:50.190Z,96.40
2017-10-06T14:15:17.765Z,96.50
2017-10-06T14:17:45.289Z,96.40
2017-10-06T14:20:13.775Z,96.60
2017-10-06T14:22:41.333Z,96.90
2017-10-06T14:25:09.832Z,96.70
2017-10-06T14:27:37.364Z,96.80
2017-10-06T14:30:04.902Z,96.70
2017-10-06T14:32:32.417Z,96.80
2017-10-06T14:35:23.967Z,96.60
2017-10-06T14:37:51.492Z,96.30
2017-10-06T14:40:19.762Z,96.40
2017-10-06T14:42:47.337Z,96.30
2017-10-06T14:45:14.865Z,96.70
2017-10-06T14:47:42.391Z,96.70
2017-10-06T14:50:16.689Z,96.40
2017-10-06T14:52:44.189Z,96.10
2017-10-06T14:55:12.529Z,96.00
2017-10-06T14:57:40.040Z,95.90
2017-10-06T15:00:07.559Z,96.00
2017-10-06T15:02:35.061Z,96.30
2017-10-06T15:05:04.606Z,96.30
2017-10-06T15:07:32.882Z,96.50
2017-10-06T15:10:00.397Z,96.50
2017-10-06T15:12:27.888Z,96.30
2017-10-06T15:14:55.397Z,96.30
2017-10-06T15:17:22.901Z,95.90
2017-10-06T15:19:52.593Z,95.90
2017-10-06T15:22:20.082Z,96.10
2017-10-06T15:24:49.422Z,96.00
2017-10-06T15:27:16.912Z,96.00
2017-10-06T15:29:47.536Z,95.80
2017-10-06T15:32:15.117Z,95.70
2017-10-06T15:34:42.624Z,95.80
2017-10-06T15:37:10.114Z,95.90
2017-10-06T15:39:38.384Z,95.60
2017-10-06T15:42:05.881Z,95.60
2017-10-06T15:44:33.405Z,95.70
2017-10-06T15:47:00.901Z,95.60
2017-10-06T15:49:28.469Z,95.60
2017-10-06T15:51:55.965Z,95.40
2017-10-06T15:54:23.453Z,95.80
2017-10-06T15:56:51.035Z,95.70
2017-10-06T15:59:18.529Z,95.60
2017-10-06T16:01:46.044Z,95.60
2017-10-06T16:04:14.301Z,95.80
2017-10-06T16:06:41.849Z,95.70
2017-10-06T16:09:09.345Z,95.70
2017-10-06T16:11:36.853Z,95.60
2017-10-06T16:16:57.234Z,95.90
2017-10-06T16:19:24.729Z,96.10
2017-10-06T16:21:52.233Z,96.10
2017-10-06T16:24:19.724Z,96.00
2017-10-06T16:26:47.236Z,96.00
2017-10-06T16:29:14.742Z,96.20
2017-10-06T16:31:43.046Z,96.10
2017-10-06T16:34:10.541Z,96.10
2017-10-06T16:36:38.045Z,96.30
2017-10-06T16:39:05.711Z,96.10
2017-10-06T16:41:33.224Z,96.20
2017-10-06T16:44:00.722Z,96.10
2017-10-06T16:46:28.261Z,96.00
2017-10-06T16:48:55.764Z,96.00
2017-10-06T16:51:23.317Z,96.00
2017-10-06T16:53:50.820Z,96.00
2017-10-06T16:56:18.346Z,95.80
2017-10-06T16:58:45.849Z,95.70
2017-10-06T17:01:13.365Z,95.90
2017-10-06T17:03:41.657Z,96.10
2017-10-06T17:06:09.161Z,96.10
2017-10-06T17:08:36.682Z,96.10
2017-10-06T17:11:04.169Z,96.30
2017-10-06T17:13:31.685Z,96.50
2017-10-06T17:15:59.186Z,96.50
2017-10-06T17:18:27.476Z,96.60
2017-10-06T17:20:55.750Z,96.70
2017-10-06T17:23:23.276Z,96.60
2017-10-06T17:25:50.781Z,96.90
2017-10-06T17:28:18.307Z,97.00
2017-10-06T17:30:45.799Z,97.00
2017-10-06T17:33:14.077Z,97.00
2017-10-06T17:35:41.574Z,97.00
2017-10-06T17:38:09.081Z,97.10
2017-10-06T17:40:36.595Z,97.10
2017-10-06T17:43:04.119Z,97.10
2017-10-06T17:45:31.613Z,97.20
2017-10-06T17:47:59.144Z,97.30
2017-10-06T17:50:26.654Z,97.50
2017-10-06T17:52:54.177Z,97.50
2017-10-06T17:55:21.695Z,97.60
2017-10-06T17:57:49.217Z,97.60
2017-10-06T18:00:16.742Z,97.40
2017-10-06T18:02:44.255Z,97.40
2017-10-06T18:05:11.865Z,97.50
2017-10-06T18:07:40.131Z,97.80
2017-10-06T18:10:07.657Z,97.70
2017-10-06T18:12:35.177Z,97.70
2017-10-06T18:15:02.758Z,97.70
2017-10-06T18:17:30.245Z,98.00
2017-10-06T18:19:58.522Z,98.00
2017-10-06T18:22:26.786Z,98.10
2017-10-06T18:24:54.301Z,98.00
2017-10-06T18:27:21.813Z,98.00
2017-10-06T18:29:49.331Z,98.00
2017-10-06T18:32:16.849Z,98.00
2017-10-06T18:34:45.121Z,98.00
2017-10-06T18:37:12.613Z,98.00
2017-10-06T18:39:40.118Z,97.90
2017-10-06T18:42:07.612Z,97.90
2017-10-06T18:44:35.136Z,98.00
2017-10-06T18:47:10.866Z,97.80
2017-10-06T18:49:38.393Z,97.70
2017-10-06T18:52:06.664Z,97.70
2017-10-06T18:54:34.176Z,97.60
2017-10-06T18:57:01.681Z,97.60
2017-10-06T18:59:29.196Z,97.60
2017-10-06T19:01:56.743Z,97.60
2017-10-06T19:04:24.252Z,97.70
2017-10-06T19:06:52.533Z,97.90
2017-10-06T19:09:20.849Z,97.90
2017-10-06T19:11:48.360Z,97.90
2017-10-06T19:14:15.857Z,97.80
2017-10-06T19:16:44.150Z,98.20
2017-10-06T19:19:12.409Z,98.20
2017-10-06T19:21:39.946Z,98.20
2017-10-06T19:24:07.450Z,98.20
2017-10-06T19:26:34.968Z,98.40
2017-10-06T19:29:02.470Z,98.70
2017-10-06T19:31:29.994Z,99.00
2017-10-06T19:33:58.268Z,99.40
2017-10-06T19:36:25.790Z,99.30
2017-10-06T19:38:53.298Z,99.30
2017-10-06T19:41:20.825Z,99.40
2017-10-06T19:43:48.328Z,99.50
2017-10-06T19:46:16.017Z,99.40
2017-10-06T19:48:43.511Z,99.30
2017-10-06T19:51:11.801Z,99.20
2017-10-06T19:53:40.078Z,99.20
2017-10-06T19:56:08.396Z,99.50
2017-10-06T19:58:37.854Z,99.30
2017-10-06T20:01:05.378Z,98.90
2017-10-06T20:03:32.881Z,98.80
2017-10-06T20:06:00.393Z,98.80
2017-10-06T20:08:27.928Z,98.70
2017-10-06T20:10:55.468Z,98.60
2017-10-06T20:13:22.956Z,98.50
2017-10-06T20:15:55.806Z,98.50
2017-10-06T20:18:24.081Z,98.70
2017-10-06T20:20:51.580Z,98.60
2017-10-06T20:23:19.105Z,98.60
2017-10-06T20:25:46.609Z,98.60
2017-10-06T20:28:14.906Z,98.70
2017-10-06T20:30:42.431Z,98.70
2017-10-06T20:33:09.948Z,98.70
2017-10-06T20:35:39.205Z,98.80
2017-10-06T20:38:06.709Z,98.70
2017-10-06T20:40:34.193Z,98.60
2017-10-06T20:43:01.713Z,98.60
2017-10-06T20:45:29.200Z,98.60
2017-10-06T20:47:56.709Z,98.70
2017-10-06T20:50:24.206Z,98.60
2017-10-06T20:52:51.738Z,98.70
2017-10-06T20:55:19.250Z,98.90
2017-10-06T20:57:46.757Z,99.00
2017-10-06T21:00:14.254Z,99.20
2017-10-06T21:02:42.537Z,99.30
2017-10-06T21:05:10.022Z,99.30
2017-10-06T21:07:38.301Z,99.10
2017-10-06T21:10:05.811Z,99.40
2017-10-06T21:12:40.377Z,99.20
2017-10-06T21:15:07.869Z,99.10
2017-10-06T21:17:35.390Z,98.90
2017-10-06T21:20:02.884Z,99.10
2017-10-06T21:22:30.387Z,98.60
2017-10-06T21:24:57.917Z,98.90
2017-10-06T21:27:25.409Z,99.10
2017-10-06T21:29:52.922Z,99.40
2017-10-06T21:32:20.432Z,99.70
2017-10-06T21:34:47.953Z,99.40
2017-10-06T21:37:16.210Z,99.40
2017-10-06T21:39:43.726Z,99.40
2017-10-06T21:42:11.213Z,99.20
2017-10-06T21:44:38.733Z,99.20
2017-10-06T21:47:06.230Z,99.60
2017-10-06T21:49:33.749Z,99.40
2017-10-06T21:52:01.253Z,99.80
2017-10-06T21:54:29.541Z,99.80
2017-10-06T21:56:57.812Z,99.90
2017-10-06T21:59:25.341Z,99.90
2017-10-06T22:01:52.849Z,99.70
2017-10-06T22:04:20.355Z,99.80
2017-10-06T22:06:48.621Z,99.90
2017-10-06T22:09:19.855Z,99.90
2017-10-06T22:11:47.350Z,99.90
2017-10-06T22:14:14.869Z,99.90
2017-10-06T22:16:42.369Z,99.90
2017-10-06T22:19:09.877Z,99.90
2017-10-06T22:21:38.134Z,99.90
2017-10-06T22:24:05.636Z,99.90
2017-10-06T22:26:33.956Z,99.90
2017-10-06T22:29:01.457Z,99.90
2017-10-06T22:31:28.969Z,99.90
2017-10-06T22:33:57.222Z,99.90
2017-10-06T22:36:24.729Z,99.90
2017-10-06T22:38:52.991Z,99.90
2017-10-06T22:41:20.502Z,99.90
2017-10-06T22:43:48.003Z,99.90
2017-10-06T22:46:15.516Z,99.90
2017-10-06T22:48:43.801Z,99.90
2017-10-06T22:51:12.092Z,99.90
2017-10-06T22:53:40.353Z,99.90
2017-10-06T22:56:07.893Z,99.90
2017-10-06T22:58:36.143Z,99.80
2017-10-06T23:01:04.422Z,99.90
2017-10-06T23:03:31.915Z,99.90
2017-10-06T23:06:00.187Z,99.80
2017-10-06T23:08:27.683Z,99.80
2017-10-06T23:10:55.196Z,99.70
2017-10-06T23:13:22.680Z,99.60
2017-10-06T23:15:50.184Z,99.50
2017-10-06T23:18:18.443Z,99.20
2017-10-06T23:20:45.957Z,99.20
2017-10-06T23:23:13.447Z,99.10
2017-10-06T23:25:42.889Z,99.00
2017-10-06T23:28:10.413Z,98.90
2017-10-06T23:30:37.940Z,98.90
2017-10-06T23:33:05.421Z,98.70
2017-10-06T23:35:32.911Z,98.80
2017-10-06T23:38:01.186Z,98.80
2017-10-06T23:40:29.440Z,98.90
2017-10-06T23:42:56.955Z,98.80
2017-10-06T23:45:24.460Z,98.90
2017-10-06T23:47:51.964Z,98.80
2017-10-06T23:50:19.454Z,98.80
2017-10-06T23:52:47.732Z,98.80
2017-10-06T23:55:15.242Z,98.80
2017-10-06T23:57:42.771Z,98.90
